Time;durP1;ratioP1;P1;durP2;ratioP2;P2;SDS_P1;SDS_P2;PMS_P1;PMS_P2;Temp;Humidity;BMP_temperature;BMP_pressure;BME280_temperature;BME280_humidity;BME280_pressure;Samples;Min_cycle;Max_cycle;Signal;HPM_P1;HPM_P2
2023/07/15 00:00:44;;;;;;;0.10;0.10;;;;;;;22.45;60.40;99776.50;4321265;33;20103;-92
2023/07/15 00:03:09;;;;;;;0.00;0.00;;;;;;;22.37;60.40;99778.94;4309068;33;20106;-92
2023/07/15 00:05:35;;;;;;;0.10;0.10;;;;;;;22.29;60.40;99781.34;4305174;33;20100;-92
2023/07/15 00:08:05;;;;;;;0.13;0.13;;;;;;;22.30;60.39;99775.09;4281799;33;20131;-94
2023/07/15 00:10:31;;;;;;;0.10;0.00;;;;;;;22.23;60.39;99776.53;4280165;33;20115;-92
2023/07/15 00:12:57;;;;;;;0.10;0.10;;;;;;;22.31;60.39;99769.66;4290899;33;105659;-92
2023/07/15 00:15:41;;;;;;;0.00;0.00;;;;;;;22.26;60.40;99771.84;4284422;33;20111;-92
2023/07/15 00:18:09;;;;;;;0.00;0.00;;;;;;;22.31;60.39;99767.00;4303821;33;20136;-93
2023/07/15 00:20:35;;;;;;;0.43;0.40;;;;;;;22.16;60.39;99775.34;4282638;33;20214;-93
2023/07/15 00:23:01;;;;;;;0.03;0.03;;;;;;;22.28;60.40;99777.88;4303903;33;20119;-93
2023/07/15 00:25:27;;;;;;;0.43;0.43;;;;;;;22.35;60.40;99767.59;4298480;33;20107;-92
2023/07/15 00:27:53;;;;;;;0.17;0.17;;;;;;;22.22;60.39;99766.88;4310523;33;20166;-91
2023/07/15 00:30:19;;;;;;;0.05;0.05;;;;;;;22.14;60.39;99770.16;4282197;33;20108;-91
2023/07/15 00:32:46;;;;;;;0.10;0.10;;;;;;;22.13;60.39;99771.13;4294092;33;20488;-93
2023/07/15 00:35:29;;;;;;;0.10;0.10;;;;;;;22.03;60.38;99771.00;4282014;33;20108;-93
2023/07/15 00:37:55;;;;;;;0.10;0.10;;;;;;;22.23;60.39;99761.47;4291828;33;20127;-92
2023/07/15 00:40:20;;;;;;;0.10;0.10;;;;;;;21.99;60.38;99763.38;4288905;33;20095;-92
2023/07/15 00:43:24;;;;;;;0.47;0.40;;;;;;;21.98;60.38;99767.84;4297192;33;20421;-94
2023/07/15 00:46:22;;;;;;;0.10;0.10;;;;;;;21.95;60.38;99764.59;4319431;33;20131;-93
2023/07/15 00:49:03;;;;;;;0.15;0.15;;;;;;;21.93;60.37;99758.56;4312171;33;20812;-94
2023/07/15 00:52:20;;;;;;;0.00;0.00;;;;;;;21.74;60.37;99756.50;4295712;33;20146;-92
2023/07/15 00:54:54;;;;;;;0.15;0.15;;;;;;;21.76;60.36;99755.44;4303750;33;20121;-94
2023/07/15 00:57:20;;;;;;;0.85;0.60;;;;;;;21.95;60.38;99752.19;4306513;33;20441;-93
2023/07/15 00:59:46;;;;;;;0.35;0.28;;;;;;;21.88;60.38;99745.69;4282518;33;20139;-94
2023/07/15 01:02:12;;;;;;;0.00;0.00;;;;;;;21.72;60.37;99753.12;4296265;33;20836;-93
2023/07/15 01:04:38;;;;;;;1.30;0.80;;;;;;;21.80;60.37;99747.25;4302293;33;20127;-93
2023/07/15 01:07:07;;;;;;;1.52;0.20;;;;;;;21.52;60.35;99748.53;4292066;33;20103;-93
2023/07/15 01:09:33;;;;;;;0.08;0.08;;;;;;;21.42;60.35;99746.62;4294869;33;20465;-93
2023/07/15 01:11:59;;;;;;;0.75;0.62;;;;;;;21.39;60.34;99748.66;4295982;33;20079;-92
2023/07/15 01:14:27;;;;;;;0.00;0.00;;;;;;;21.42;60.35;99745.78;4321000;33;20068;-91
2023/07/15 01:16:52;;;;;;;0.68;0.55;;;;;;;21.28;60.34;99745.97;4288431;33;20112;-92
2023/07/15 01:19:18;;;;;;;0.00;0.00;;;;;;;21.40;60.34;99750.34;4288766;33;20120;-93
2023/07/15 01:21:44;;;;;;;0.88;0.82;;;;;;;21.19;60.34;99744.00;4319588;33;20146;-93
2023/07/15 01:24:09;;;;;;;0.10;0.10;;;;;;;21.21;60.33;99734.13;4296135;33;20382;-92
2023/07/15 01:26:35;;;;;;;0.05;0.05;;;;;;;21.15;60.33;99744.25;4298018;33;20104;-94
2023/07/15 01:29:00;;;;;;;0.00;0.00;;;;;;;21.22;60.33;99747.25;4290820;33;20096;-95
2023/07/15 01:31:30;;;;;;;0.10;0.10;;;;;;;21.21;60.33;99745.56;4283029;33;20139;-94
2023/07/15 01:33:55;;;;;;;2.80;0.28;;;;;;;21.20;60.34;99743.03;4290884;33;20082;-94
2023/07/15 01:36:54;;;;;;;0.43;0.43;;;;;;;21.24;60.34;99747.16;4300085;33;20096;-94
2023/07/15 01:39:19;;;;;;;0.30;0.30;;;;;;;21.22;60.33;99743.75;4279791;33;20182;-95
2023/07/15 01:41:45;;;;;;;0.40;0.40;;;;;;;21.27;60.34;99749.56;4283340;33;20136;-95
2023/07/15 01:47:54;;;;;;;1.45;0.60;;;;;;;21.18;60.34;99751.09;4293870;33;20131;-96
2023/07/15 01:50:19;;;;;;;0.45;0.45;;;;;;;20.92;60.31;99745.12;4297847;33;20414;-95
2023/07/15 01:52:52;;;;;;;0.40;0.30;;;;;;;20.95;60.33;99750.19;4294717;33;20096;-94
2023/07/15 01:55:20;;;;;;;0.20;0.20;;;;;;;20.99;60.32;99751.63;4308005;33;20093;-94
2023/07/15 01:57:46;;;;;;;0.10;0.10;;;;;;;21.03;60.32;99752.25;4294971;33;20370;-94
2023/07/15 02:00:16;;;;;;;0.20;0.10;;;;;;;21.08;60.33;99755.41;4295879;33;20138;-94
2023/07/15 02:02:41;;;;;;;0.13;0.13;;;;;;;20.96;60.32;99753.69;4296755;33;20119;-96
2023/07/15 02:05:07;;;;;;;0.15;0.15;;;;;;;21.04;60.32;99751.28;4295913;33;20107;-94
2023/07/15 02:07:33;;;;;;;0.17;0.17;;;;;;;21.05;60.33;99753.81;4295650;33;20162;-94
2023/07/15 02:09:58;;;;;;;0.17;0.13;;;;;;;21.00;60.32;99753.31;4295697;33;20112;-94
2023/07/15 02:12:24;;;;;;;0.73;0.65;;;;;;;21.01;60.33;99757.66;4295413;33;20166;-94
2023/07/15 02:15:01;;;;;;;0.00;0.00;;;;;;;20.95;60.32;99750.19;4295413;33;20100;-94
2023/07/15 02:17:30;;;;;;;0.22;0.22;;;;;;;20.99;60.32;99751.63;4296206;33;20116;-95
2023/07/15 02:19:59;;;;;;;0.03;0.03;;;;;;;20.99;60.32;99746.34;4296717;33;20706;-94
2023/07/15 02:26:10;;;;;;;0.35;0.32;;;;;;;20.92;60.32;99755.72;4287750;33;20763;-94
2023/07/15 02:28:35;;;;;;;0.47;0.47;;;;;;;20.96;60.32;99753.69;4294168;33;20136;-92
2023/07/15 02:31:01;;;;;;;0.10;0.10;;;;;;;20.90;60.31;99759.44;4278926;33;20120;-95
2023/07/15 02:33:26;;;;;;;0.10;0.10;;;;;;;20.89;60.32;99761.22;4291532;33;20179;-93
2023/07/15 02:35:52;;;;;;;0.10;0.10;;;;;;;20.83;60.31;99754.59;4279908;33;20536;-95
2023/07/15 02:38:18;;;;;;;0.20;0.20;;;;;;;20.75;60.31;99756.09;4291524;33;20159;-93
2023/07/15 02:40:55;;;;;;;1.05;0.30;;;;;;;20.69;60.31;99754.78;4291661;33;20188;-91
2023/07/15 02:43:20;;;;;;;0.70;0.35;;;;;;;20.69;60.31;99759.22;4290359;33;20100;-93
2023/07/15 02:45:48;;;;;;;0.00;0.00;;;;;;;20.69;60.31;99762.72;4284478;33;23490;-90
2023/07/15 02:48:13;;;;;;;0.25;0.25;;;;;;;20.68;60.30;99757.53;4278310;33;20547;-92
2023/07/15 02:50:39;;;;;;;0.22;0.22;;;;;;;20.66;60.31;99752.34;4290149;33;20176;-92
2023/07/15 02:53:28;;;;;;;0.65;0.32;;;;;;;20.60;60.30;99770.47;4278849;33;20147;-93
2023/07/15 02:55:54;;;;;;;0.73;0.35;;;;;;;20.74;60.31;99767.66;4290136;33;20110;-92
2023/07/15 02:58:21;;;;;;;0.55;0.17;;;;;;;20.66;60.31;99759.44;4290221;33;20332;-92
2023/07/15 03:00:48;;;;;;;0.15;0.15;;;;;;;20.53;60.30;99770.91;4305424;33;20563;-93
2023/07/15 03:03:13;;;;;;;0.30;0.30;;;;;;;20.58;60.30;99772.37;4293472;33;20273;-92
2023/07/15 03:05:45;;;;;;;0.15;0.15;;;;;;;20.50;60.30;99765.84;4293301;33;20398;-92
2023/07/15 03:08:10;;;;;;;0.10;0.10;;;;;;;20.56;60.30;99771.63;4293423;33;20112;-91
2023/07/15 03:10:36;;;;;;;0.03;0.03;;;;;;;20.65;60.30;99768.34;4293498;33;20576;-92
2023/07/15 03:13:01;;;;;;;0.35;0.35;;;;;;;20.60;60.30;99767.84;4293582;33;20474;-93
2023/07/15 03:15:27;;;;;;;0.75;0.60;;;;;;;20.66;60.30;99767.38;4293508;33;20512;-93
2023/07/15 03:17:53;;;;;;;0.43;0.30;;;;;;;20.52;60.30;99769.22;4305680;33;20462;-93
2023/07/15 03:20:21;;;;;;;0.28;0.28;;;;;;;20.59;60.30;99768.78;4293877;33;20112;-93
2023/07/15 03:22:47;;;;;;;0.50;0.50;;;;;;;20.70;60.30;99763.53;4282384;33;20983;-93
2023/07/15 03:25:14;;;;;;;0.25;0.20;;;;;;;20.70;60.30;99760.91;4281903;33;20116;-92
2023/07/15 03:27:39;;;;;;;0.50;0.50;;;;;;;20.70;60.30;99766.19;4293582;33;20105;-93
2023/07/15 03:30:07;;;;;;;0.20;0.20;;;;;;;20.68;60.30;99763.66;4293506;33;20195;-93
2023/07/15 03:32:35;;;;;;;0.05;0.05;;;;;;;20.83;60.31;99759.91;4281045;33;20126;-90
2023/07/15 03:35:00;;;;;;;4.47;0.95;;;;;;;20.76;60.31;99756.00;4304719;33;20104;-92
2023/07/15 03:37:25;;;;;;;0.40;0.40;;;;;;;20.72;60.31;99761.62;4318141;33;20125;-89
2023/07/15 03:39:52;;;;;;;0.65;0.65;;;;;;;20.90;60.31;99762.06;4304663;33;20151;-92
2023/07/15 03:42:18;;;;;;;0.32;0.32;;;;;;;21.13;60.33;99759.41;4295116;33;20093;-91
2023/07/15 03:44:46;;;;;;;0.55;0.45;;;;;;;21.28;60.33;99756.56;4294602;33;20166;-91
2023/07/15 03:47:12;;;;;;;2.65;0.22;;;;;;;21.22;60.33;99765.78;4295198;33;20157;-91
2023/07/15 03:49:37;;;;;;;1.23;0.43;;;;;;;21.12;60.33;99767.47;4294758;33;20119;-91
2023/07/15 03:52:03;;;;;;;0.00;0.00;;;;;;;21.13;60.33;99766.50;4295211;33;20084;-91
2023/07/15 03:54:29;;;;;;;0.00;0.00;;;;;;;21.28;60.34;99767.16;4295008;33;20115;-91
2023/07/15 03:56:54;;;;;;;0.95;0.30;;;;;;;21.22;60.33;99770.25;4307034;33;20155;-91
2023/07/15 03:59:20;;;;;;;0.20;0.20;;;;;;;21.26;60.34;99769.06;4294625;33;20111;-91
2023/07/15 04:01:45;;;;;;;0.13;0.13;;;;;;;21.27;60.34;99768.94;4295075;33;20108;-93
2023/07/15 04:04:38;;;;;;;0.65;0.62;;;;;;;21.43;60.34;99761.53;4295540;33;20139;-95
2023/07/15 04:31:55;;;;;;;0.65;0.40;;;;;;;22.61;60.40;99737.16;4361641;33;20086;-95
2023/07/15 04:33:50;;;;;;;0.00;0.00;;;;;;;22.81;60.42;99737.31;4349051;32;20133;-92
2023/07/15 04:36:17;;;;;;;0.95;0.68;;;;;;;22.88;60.42;99744.66;4338629;32;20134;-91
2023/07/15 04:38:43;;;;;;;0.47;0.47;;;;;;;22.98;60.43;99755.38;4326224;32;20083;-91
2023/07/15 04:41:08;;;;;;;0.40;0.40;;;;;;;23.18;60.43;99751.03;4325520;32;20150;-89
2023/07/15 04:48:03;;;;;;;0.37;0.37;;;;;;;23.40;60.44;99750.06;4291034;33;20108;-96
2023/07/15 04:50:30;;;;;;;0.37;0.37;;;;;;;23.61;60.45;99758.03;4276401;33;20572;-90
2023/07/15 04:52:55;;;;;;;0.52;0.52;;;;;;;23.67;60.46;99749.56;4298367;33;20167;-91
2023/07/15 04:55:21;;;;;;;0.37;0.37;;;;;;;23.92;60.48;99751.78;4308879;33;20100;-89
2023/07/15 04:57:49;;;;;;;9.77;0.73;;;;;;;24.01;60.47;99755.44;4332987;33;20140;-91
2023/07/15 05:00:16;;;;;;;4.40;1.10;;;;;;;24.04;60.47;99757.81;4326149;33;20119;-92
2023/07/15 05:02:44;;;;;;;0.37;0.35;;;;;;;24.17;60.48;99761.94;4335122;33;20756;-94
2023/07/15 05:05:18;;;;;;;1.05;0.75;;;;;;;24.13;60.47;99762.31;4311845;33;20094;-94
2023/07/15 05:07:49;;;;;;;0.90;0.35;;;;;;;24.31;60.49;99770.53;4324107;33;20099;-92
2023/07/15 05:10:14;;;;;;;0.20;0.20;;;;;;;24.56;60.50;99767.38;4323009;33;20161;-91
2023/07/15 05:12:40;;;;;;;0.20;0.20;;;;;;;24.34;60.49;99771.09;4323138;33;20107;-88
2023/07/15 05:15:06;;;;;;;0.00;0.00;;;;;;;24.54;60.50;99766.66;4322414;33;20143;-90
2023/07/15 05:17:32;;;;;;;0.30;0.30;;;;;;;24.49;60.50;99768.91;4322933;33;20153;-91
2023/07/15 05:20:00;;;;;;;0.88;0.70;;;;;;;24.55;60.50;99767.50;4307759;33;20104;-94
2023/07/15 05:22:26;;;;;;;0.10;0.10;;;;;;;24.63;60.51;99765.00;4333785;33;20111;-93
2023/07/15 05:24:51;;;;;;;0.47;0.47;;;;;;;24.73;60.51;99769.34;4309776;33;20099;-92
2023/07/15 05:27:17;;;;;;;0.10;0.10;;;;;;;24.94;60.52;99776.38;4309298;33;20110;-93
2023/07/15 05:29:43;;;;;;;0.32;0.32;;;;;;;24.98;60.52;99772.44;4321639;33;20153;-93
2023/07/15 05:32:09;;;;;;;0.00;0.00;;;;;;;24.97;60.52;99784.09;4309821;33;20123;-94
2023/07/15 05:34:34;;;;;;;0.17;0.17;;;;;;;25.00;60.53;99778.50;4310523;33;20116;-94
2023/07/15 05:37:00;;;;;;;0.22;0.22;;;;;;;25.14;60.54;99786.09;4311250;33;20092;-93
2023/07/15 05:39:25;;;;;;;0.00;0.00;;;;;;;25.47;60.54;99775.94;4314373;33;20076;-93
2023/07/15 05:41:51;;;;;;;0.22;0.22;;;;;;;25.30;60.54;99782.81;4323159;33;20143;-92
2023/07/15 05:44:16;;;;;;;0.10;0.10;;;;;;;25.46;60.56;99785.75;4330964;33;20176;-93
2023/07/15 05:46:42;;;;;;;0.00;0.00;;;;;;;25.62;60.55;99782.50;4325342;33;20131;-94
2023/07/15 05:49:08;;;;;;;0.40;0.32;;;;;;;25.61;60.55;99789.66;4321934;33;20132;-93
2023/07/15 05:51:34;;;;;;;0.50;0.50;;;;;;;25.79;60.57;99789.78;4309095;33;20095;-94
2023/07/15 05:53:59;;;;;;;0.20;0.20;;;;;;;26.01;60.57;99789.41;4309054;33;20442;-92
2023/07/15 05:56:25;;;;;;;0.00;0.00;;;;;;;26.10;60.58;99786.84;4308943;33;20096;-93
2023/07/15 05:58:51;;;;;;;0.45;0.45;;;;;;;25.87;60.58;99784.56;4308763;33;20144;-93
2023/07/15 06:01:16;;;;;;;0.30;0.20;;;;;;;26.10;60.59;99784.19;4321152;33;20087;-92
2023/07/15 06:03:42;;;;;;;0.10;0.10;;;;;;;26.09;60.58;99790.50;4308429;33;20163;-94
2023/07/15 06:06:07;;;;;;;0.20;0.17;;;;;;;26.23;60.59;99790.00;4321010;33;20140;-93
2023/07/15 06:08:33;;;;;;;0.32;0.32;;;;;;;26.41;60.59;99795.44;4321776;33;20114;-94
2023/07/15 06:10:58;;;;;;;1.35;0.77;;;;;;;26.48;60.60;99791.16;4309359;33;20459;-94
2023/07/15 06:13:24;;;;;;;0.55;0.55;;;;;;;26.58;60.61;99792.78;4309468;33;20138;-94
2023/07/15 06:15:50;;;;;;;0.10;0.10;;;;;;;26.59;60.61;99786.47;4309414;33;20096;-94
2023/07/15 06:18:16;;;;;;;0.10;0.10;;;;;;;26.75;60.62;99782.31;4321724;33;20122;-94
2023/07/15 06:20:41;;;;;;;0.00;0.00;;;;;;;26.89;60.63;99787.09;4310050;33;20103;-94
2023/07/15 06:23:07;;;;;;;0.52;0.52;;;;;;;27.13;60.64;99789.19;4309462;33;20100;-93
2023/07/15 06:25:35;;;;;;;0.68;0.50;;;;;;;27.26;60.64;99784.28;4321202;33;20173;-93
2023/07/15 06:28:01;;;;;;;0.20;0.20;;;;;;;27.13;60.64;99791.84;4309307;33;20088;-94
2023/07/15 06:30:27;;;;;;;0.00;0.00;;;;;;;27.44;60.64;99789.59;4309218;33;20099;-95
2023/07/15 06:32:53;;;;;;;0.15;0.15;;;;;;;27.55;60.66;99796.53;4309355;33;20091;-94
2023/07/15 06:35:21;;;;;;;0.40;0.40;;;;;;;27.55;60.65;99789.34;4308931;33;20385;-95
2023/07/15 06:37:59;;;;;;;0.32;0.32;;;;;;;27.66;60.67;99791.78;4309135;33;20381;-94
2023/07/15 06:40:24;;;;;;;0.00;0.00;;;;;;;27.87;60.67;99786.03;4309685;33;20111;-96
2023/07/15 06:42:50;;;;;;;0.05;0.05;;;;;;;28.02;60.69;99781.78;4308743;33;20525;-93
2023/07/15 06:45:19;;;;;;;0.13;0.13;;;;;;;28.22;60.70;99787.72;4308692;33;20114;-94
2023/07/15 06:47:46;;;;;;;0.30;0.30;;;;;;;28.41;60.71;99787.50;4320900;33;20109;-94
2023/07/15 06:50:11;;;;;;;3.20;1.55;;;;;;;28.69;60.72;99784.56;4333150;33;20216;-94
2023/07/15 06:52:37;;;;;;;0.30;0.20;;;;;;;28.78;60.73;99786.25;4308674;33;20421;-95
2023/07/15 06:55:05;;;;;;;0.20;0.20;;;;;;;29.17;60.74;99788.31;4320965;33;20092;-94
2023/07/15 06:57:31;;;;;;;3.92;2.12;;;;;;;29.29;60.74;99782.44;4308607;33;20163;-94
2023/07/15 06:59:57;;;;;;;0.10;0.10;;;;;;;29.71;60.77;99786.78;4309036;33;20100;-95
2023/07/15 07:02:22;;;;;;;0.40;0.40;;;;;;;29.73;60.77;99782.09;4309133;33;20117;-95
2023/07/15 07:04:48;;;;;;;1.00;0.30;;;;;;;29.64;60.76;99781.28;4321408;33;20111;-94
2023/07/15 07:07:13;;;;;;;0.40;0.40;;;;;;;29.84;60.78;99788.94;4310756;33;20115;-94
2023/07/15 07:09:39;;;;;;;0.13;0.13;;;;;;;29.98;60.79;99785.53;4321155;33;20111;-95
2023/07/15 07:12:05;;;;;;;0.00;0.00;;;;;;;30.11;60.78;99780.50;4330361;33;20126;-95
2023/07/15 07:14:31;;;;;;;0.62;0.62;;;;;;;30.24;60.79;99783.44;4308470;33;20088;-95
2023/07/15 07:16:57;;;;;;;0.77;0.40;;;;;;;30.29;60.81;99777.56;4322138;33;20096;-94
2023/07/15 07:19:22;;;;;;;0.10;0.10;;;;;;;30.50;60.80;99776.94;4310065;33;20128;-94
2023/07/15 07:21:48;;;;;;;1.60;0.90;;;;;;;30.59;60.81;99783.12;4310204;33;20107;-94
2023/07/15 07:24:15;;;;;;;0.17;0.17;;;;;;;30.78;60.82;99785.38;4309711;33;20109;-93
2023/07/15 07:26:41;;;;;;;0.13;0.13;;;;;;;31.00;60.83;99784.56;4309685;33;20091;-92
2023/07/15 07:29:06;;;;;;;0.00;0.00;;;;;;;30.97;60.83;99778.69;4321605;33;20187;-92
2023/07/15 07:31:31;;;;;;;0.10;0.10;;;;;;;31.25;60.84;99779.00;4321650;33;20115;-91
2023/07/15 07:33:57;;;;;;;0.03;0.03;;;;;;;31.49;60.87;99769.88;4321309;33;21837;-91
2023/07/15 07:36:22;;;;;;;0.00;0.00;;;;;;;31.56;60.87;99781.56;4309545;33;20453;-91
2023/07/15 07:38:48;;;;;;;0.30;0.30;;;;;;;31.71;60.88;99783.28;4309466;33;20143;-90
2023/07/15 07:41:15;;;;;;;0.10;0.10;;;;;;;31.70;60.87;99778.88;4321127;33;26819;-91
2023/07/15 07:43:40;;;;;;;0.20;0.20;;;;;;;31.79;60.87;99778.84;4321891;33;20619;-90
2023/07/15 07:46:11;;;;;;;0.00;0.00;;;;;;;31.88;60.89;99783.09;4333820;33;20088;-90
2023/07/15 07:48:37;;;;;;;0.17;0.17;;;;;;;31.84;60.87;99788.03;4333637;33;20473;-91
2023/07/15 07:51:02;;;;;;;0.25;0.22;;;;;;;31.81;60.88;99782.19;4321297;33;20165;-90
2023/07/15 07:53:28;;;;;;;0.00;0.00;;;;;;;31.86;60.88;99777.91;4321684;33;20163;-90
2023/07/15 07:55:54;;;;;;;0.20;0.20;;;;;;;31.87;60.88;99779.56;4321608;33;20107;-90
2023/07/15 07:58:19;;;;;;;0.55;0.55;;;;;;;31.91;60.88;99771.94;4321777;33;20112;-89
2023/07/15 08:00:44;;;;;;;0.70;0.70;;;;;;;32.12;60.90;99763.97;4334017;33;20103;-89
2023/07/15 08:03:10;;;;;;;0.30;0.15;;;;;;;32.33;60.90;99766.75;4333624;33;20092;-89
2023/07/15 08:05:45;;;;;;;0.43;0.43;;;;;;;32.43;60.91;99763.75;4321684;33;20092;-88
2023/07/15 08:08:11;;;;;;;0.20;0.10;;;;;;;32.47;60.91;99773.13;4334912;33;20449;-88
2023/07/15 08:10:36;;;;;;;0.30;0.30;;;;;;;32.39;60.91;99765.13;4333789;33;20130;-87
2023/07/15 08:13:03;;;;;;;1.00;0.45;;;;;;;32.62;60.92;99776.59;4335030;33;20531;-87
2023/07/15 08:15:29;;;;;;;0.10;0.10;;;;;;;32.70;60.92;99774.84;4334003;33;20092;-87
2023/07/15 08:17:55;;;;;;;0.00;0.00;;;;;;;32.65;60.92;99775.38;4333824;33;20688;-87
2023/07/15 08:20:20;;;;;;;0.08;0.08;;;;;;;32.85;60.93;99775.62;4334887;33;20496;-87
2023/07/15 08:22:46;;;;;;;0.82;0.50;;;;;;;32.77;60.93;99773.88;4335013;33;20385;-86
2023/07/15 08:25:11;;;;;;;2.15;0.82;;;;;;;33.04;60.94;99774.16;4335071;33;20127;-87
2023/07/15 08:27:36;;;;;;;10.43;0.80;;;;;;;32.98;60.94;99770.38;4320190;33;23996;-87
2023/07/15 08:30:02;;;;;;;0.47;0.45;;;;;;;33.05;60.94;99771.25;4321875;33;20238;-87
2023/07/15 08:32:28;;;;;;;0.10;0.10;;;;;;;33.14;60.94;99774.69;4322218;33;20166;-87
2023/07/15 08:35:00;;;;;;;0.30;0.20;;;;;;;33.45;60.96;99777.84;4336281;33;20517;-88
2023/07/15 08:37:26;;;;;;;0.85;0.47;;;;;;;33.64;60.96;99764.72;4328814;33;20099;-87
2023/07/15 08:39:51;;;;;;;0.25;0.25;;;;;;;33.62;60.97;99772.16;4341671;33;20163;-88
2023/07/15 08:42:19;;;;;;;0.40;0.40;;;;;;;33.83;60.98;99772.06;4309420;33;20115;-88
2023/07/15 08:44:46;;;;;;;0.30;0.30;;;;;;;33.98;60.99;99764.72;4335043;33;20166;-88
2023/07/15 08:47:11;;;;;;;0.45;0.40;;;;;;;33.86;60.98;99769.88;4333570;33;20112;-88
2023/07/15 08:49:37;;;;;;;1.08;0.43;;;;;;;33.82;60.98;99765.84;4320827;33;23936;-88
2023/07/15 08:52:02;;;;;;;0.20;0.20;;;;;;;33.98;60.99;99766.59;4321227;33;20123;-88
2023/07/15 08:54:28;;;;;;;0.45;0.40;;;;;;;33.90;60.99;99774.88;4321285;33;20127;-88
2023/07/15 08:56:53;;;;;;;0.30;0.30;;;;;;;34.04;60.98;99771.19;4321129;33;20160;-88
2023/07/15 08:59:19;;;;;;;1.05;0.50;;;;;;;33.94;60.99;99771.56;4320542;33;32425;-88
2023/07/15 09:01:44;;;;;;;2.40;1.12;;;;;;;34.08;60.99;99769.78;4321211;33;20088;-88
2023/07/15 09:04:09;;;;;;;0.60;0.52;;;;;;;34.15;61.00;99767.91;4320935;33;20117;-88
2023/07/15 09:06:35;;;;;;;3.50;0.32;;;;;;;34.11;60.99;99769.38;4320303;33;31334;-89
2023/07/15 09:09:00;;;;;;;0.20;0.20;;;;;;;34.13;61.00;99764.59;4333382;33;20159;-89
2023/07/15 09:11:37;;;;;;;0.25;0.25;;;;;;;34.13;61.00;99770.00;4321331;33;20084;-89
2023/07/15 09:14:11;;;;;;;0.20;0.20;;;;;;;34.23;61.00;99770.44;4333288;33;20127;-89
2023/07/15 09:16:41;;;;;;;2.47;0.65;;;;;;;34.52;61.01;99772.03;4321022;33;20179;-90
2023/07/15 09:19:06;;;;;;;0.20;0.20;;;;;;;34.80;61.03;99776.47;4321150;33;20115;-90
2023/07/15 09:21:31;;;;;;;0.65;0.60;;;;;;;35.19;61.05;99771.13;4321173;33;20441;-90
2023/07/15 09:23:59;;;;;;;0.20;0.20;;;;;;;35.32;61.05;99770.31;4320740;33;20084;-90
2023/07/15 09:26:25;;;;;;;0.90;0.68;;;;;;;35.31;61.05;99769.47;4308606;33;20424;-91
2023/07/15 09:28:50;;;;;;;0.15;0.15;;;;;;;35.41;61.05;99762.81;4320995;33;20122;-90
2023/07/15 09:31:25;;;;;;;1.20;0.55;;;;;;;35.43;61.06;99774.28;4308331;33;27162;-90
2023/07/15 09:33:51;;;;;;;0.35;0.35;;;;;;;35.51;61.07;99772.19;4321078;33;20100;-92
2023/07/15 09:36:29;;;;;;;0.03;0.03;;;;;;;35.66;61.07;99761.94;4320967;33;20363;-90
2023/07/15 09:38:54;;;;;;;0.28;0.28;;;;;;;35.88;61.07;99772.56;4320742;33;20112;-91
2023/07/15 09:41:19;;;;;;;0.45;0.45;;;;;;;35.96;61.08;99769.59;4308631;33;20111;-91
2023/07/15 09:43:51;;;;;;;0.32;0.32;;;;;;;36.15;61.08;99767.88;4320695;33;20308;-91
2023/07/15 09:46:19;;;;;;;0.00;0.00;;;;;;;36.36;61.10;99761.34;4333135;33;20810;-91
2023/07/15 09:48:45;;;;;;;0.37;0.35;;;;;;;36.45;61.10;99769.03;4320943;33;20103;-91
2023/07/15 09:51:14;;;;;;;0.00;0.00;;;;;;;36.44;61.10;99764.66;4333203;33;20122;-91
2023/07/15 09:53:42;;;;;;;0.00;0.00;;;;;;;36.46;61.10;99764.44;4321186;33;20087;-91
2023/07/15 09:56:08;;;;;;;0.47;0.30;;;;;;;36.62;61.12;99753.06;4321144;33;20144;-91
2023/07/15 09:58:33;;;;;;;0.30;0.30;;;;;;;36.83;61.12;99757.34;4308814;33;20186;-91
2023/07/15 10:01:11;;;;;;;0.62;0.62;;;;;;;37.03;61.13;99752.62;4321315;33;20135;-92
2023/07/15 10:03:43;;;;;;;0.03;0.03;;;;;;;36.98;61.13;99760.59;4335837;33;20170;-91
2023/07/15 10:06:08;;;;;;;0.15;0.15;;;;;;;37.00;61.13;99746.81;4325025;33;20110;-90
2023/07/15 10:08:34;;;;;;;0.10;0.10;;;;;;;37.25;61.15;99744.94;4330480;33;20119;-92
2023/07/15 10:11:00;;;;;;;5.40;1.08;;;;;;;37.31;61.15;99748.66;4321092;33;20083;-92
2023/07/15 10:13:25;;;;;;;0.43;0.20;;;;;;;37.51;61.17;99738.44;4320733;33;20131;-92
2023/07/15 10:15:51;;;;;;;0.70;0.25;;;;;;;37.54;61.16;99750.72;4320675;33;20381;-93
2023/07/15 10:18:17;;;;;;;0.28;0.28;;;;;;;37.35;61.14;99744.44;4320580;33;20112;-92
2023/07/15 10:20:47;;;;;;;0.45;0.45;;;;;;;37.18;61.14;99744.16;4333702;33;20123;-92
2023/07/15 10:23:13;;;;;;;0.20;0.20;;;;;;;37.19;61.15;99749.34;4320696;33;20100;-91
2023/07/15 10:25:42;;;;;;;0.30;0.30;;;;;;;37.17;61.14;99740.59;4320558;33;20096;-93
2023/07/15 10:28:14;;;;;;;0.10;0.10;;;;;;;37.39;61.16;99741.06;4332652;33;20092;-92
2023/07/15 10:31:02;;;;;;;1.00;0.50;;;;;;;37.39;61.16;99741.06;4320434;33;20674;-91
2023/07/15 10:33:27;;;;;;;0.55;0.55;;;;;;;37.54;61.16;99743.41;4333030;33;20147;-92
2023/07/15 10:35:53;;;;;;;0.65;0.30;;;;;;;37.70;61.17;99729.25;4308286;33;20505;-92
2023/07/15 10:38:29;;;;;;;0.20;0.20;;;;;;;37.67;61.17;99742.47;4308786;33;20122;-91
2023/07/15 10:41:04;;;;;;;0.22;0.22;;;;;;;37.43;61.15;99742.28;4332513;33;20113;-93
2023/07/15 10:43:33;;;;;;;0.10;0.10;;;;;;;37.48;61.16;99742.44;4320484;33;20422;-91
2023/07/15 10:46:00;;;;;;;0.30;0.30;;;;;;;37.51;61.17;99741.16;4320089;33;20138;-92
2023/07/15 10:48:25;;;;;;;0.20;0.20;;;;;;;37.61;61.17;99735.19;4332453;33;20131;-92
2023/07/15 10:50:55;;;;;;;0.05;0.05;;;;;;;37.28;61.15;99743.66;4320852;33;20132;-92
2023/07/15 10:53:26;;;;;;;0.13;0.13;;;;;;;37.38;61.16;99736.66;4309912;33;20095;-93
2023/07/15 10:55:55;;;;;;;0.17;0.17;;;;;;;37.76;61.17;99735.69;4322374;33;20514;-91
2023/07/15 10:58:20;;;;;;;8.70;1.85;;;;;;;37.90;61.18;99737.22;4322210;33;20111;-92
2023/07/15 11:00:47;;;;;;;0.20;0.20;;;;;;;37.79;61.18;99727.91;4322181;33;20437;-93
2023/07/15 11:03:13;;;;;;;0.20;0.20;;;;;;;37.62;61.17;99734.13;4322297;33;20091;-92
2023/07/15 11:05:38;;;;;;;0.68;0.68;;;;;;;37.65;61.17;99733.72;4322258;33;20111;-92
2023/07/15 11:08:05;;;;;;;0.22;0.22;;;;;;;37.45;61.16;99729.31;4322206;33;20133;-92
2023/07/15 11:10:34;;;;;;;0.75;0.75;;;;;;;37.55;61.17;99726.06;4322481;33;20114;-91
2023/07/15 11:13:15;;;;;;;0.22;0.22;;;;;;;37.52;61.17;99722.97;4322254;33;20080;-92
2023/07/15 11:15:41;;;;;;;0.62;0.50;;;;;;;37.45;61.16;99726.59;4323054;33;20422;-92
2023/07/15 11:18:14;;;;;;;0.35;0.35;;;;;;;37.59;61.16;99715.56;4322137;33;20461;-91
2023/07/15 11:20:40;;;;;;;0.20;0.20;;;;;;;37.64;61.17;99724.72;4309701;33;20134;-92
2023/07/15 11:23:05;;;;;;;0.03;0.03;;;;;;;37.46;61.17;99713.84;4309350;33;20084;-92
2023/07/15 11:25:32;;;;;;;0.45;0.20;;;;;;;37.59;61.17;99708.25;4321823;33;20100;-92
2023/07/15 11:28:00;;;;;;;0.08;0.08;;;;;;;37.40;61.16;99706.59;4322843;33;20389;-91
2023/07/15 11:30:35;;;;;;;0.35;0.22;;;;;;;37.69;61.17;99702.31;4322575;33;20153;-91
2023/07/15 11:33:02;;;;;;;0.50;0.20;;;;;;;37.87;61.18;99715.09;4324678;33;20674;-91
2023/07/15 11:35:33;;;;;;;0.47;0.43;;;;;;;37.82;61.18;99704.88;4326093;33;20103;-91
2023/07/15 11:37:59;;;;;;;0.32;0.30;;;;;;;37.96;61.19;99703.69;4332744;33;20112;-92
2023/07/15 11:40:24;;;;;;;0.20;0.20;;;;;;;38.00;61.18;99694.00;4310126;33;20125;-92
2023/07/15 11:42:50;;;;;;;0.30;0.30;;;;;;;37.96;61.19;99700.97;4321927;33;20449;-90
2023/07/15 11:45:15;;;;;;;0.20;0.20;;;;;;;38.03;61.19;99700.88;4321771;33;23082;-92
2023/07/15 11:47:44;;;;;;;0.20;0.20;;;;;;;38.05;61.19;99693.31;4321701;33;20088;-92
2023/07/15 11:50:15;;;;;;;0.20;0.20;;;;;;;37.82;61.18;99696.75;4322078;33;20158;-92
2023/07/15 11:52:44;;;;;;;1.65;0.45;;;;;;;37.67;61.17;99691.69;4322895;33;20512;-92
2023/07/15 11:55:09;;;;;;;0.22;0.22;;;;;;;37.67;61.17;99688.13;4321950;33;20111;-92
2023/07/15 11:57:45;;;;;;;0.43;0.43;;;;;;;37.62;61.17;99679.81;4309616;33;20121;-92
2023/07/15 12:00:32;;;;;;;4.65;1.25;;;;;;;37.71;61.18;99683.91;4322012;33;20554;-92
2023/07/15 12:02:58;;;;;;;0.90;0.47;;;;;;;37.92;61.19;99675.31;4333669;33;20149;-92
2023/07/15 12:05:23;;;;;;;1.12;1.02;;;;;;;38.02;61.19;99681.00;4309654;33;20164;-92
2023/07/15 12:07:52;;;;;;;0.52;0.50;;;;;;;38.27;61.20;99680.91;4309372;33;20163;-92
2023/07/15 12:10:18;;;;;;;0.22;0.22;;;;;;;38.34;61.21;99675.41;4322226;33;20091;-92
2023/07/15 12:12:45;;;;;;;0.50;0.50;;;;;;;38.03;61.19;99677.25;4322141;33;20154;-92